createdAt,value
2023-04-06T00:01:03.847Z,19.27
2023-04-06T00:03:31.371Z,17.88
2023-04-06T00:05:58.432Z,16.88
2023-04-06T00:08:25.486Z,17.98
2023-04-06T00:10:52.451Z,19.50
2023-04-06T00:13:19.305Z,19.38
2023-04-06T00:15:46.148Z,19.02
2023-04-06T00:18:13.132Z,18.42
2023-04-06T00:20:40.068Z,16.73
2023-04-06T00:23:07.062Z,16.75
2023-04-06T00:25:33.880Z,18.10
2023-04-06T00:28:00.814Z,15.93
2023-04-06T00:30:27.705Z,16.90
2023-04-06T00:32:54.642Z,16.38
2023-04-06T00:35:21.967Z,17.00
2023-04-06T00:37:49.335Z,15.93
2023-04-06T00:40:16.776Z,16.67
2023-04-06T00:42:43.737Z,16.25
2023-04-06T00:45:11.381Z,15.63
2023-04-06T00:47:38.563Z,16.50
2023-04-06T00:50:06.330Z,15.93
2023-04-06T00:52:33.232Z,16.45
2023-04-06T00:55:00.119Z,15.18
2023-04-06T00:57:27.013Z,16.33
2023-04-06T00:59:54.314Z,15.45
2023-04-06T01:02:25.178Z,15.38
2023-04-06T01:04:53.436Z,15.48
2023-04-06T01:07:20.430Z,15.77
2023-04-06T01:09:47.228Z,15.02
2023-04-06T01:12:14.153Z,16.20
2023-04-06T01:14:41.847Z,15.02
2023-04-06T01:17:08.750Z,14.63
2023-04-06T01:19:35.640Z,15.00
2023-04-06T01:22:02.610Z,14.00
2023-04-06T01:24:29.606Z,14.63
2023-04-06T01:26:57.640Z,14.23
2023-04-06T01:29:24.504Z,14.88
2023-04-06T01:31:51.557Z,14.85
2023-04-06T01:34:18.422Z,13.98
2023-04-06T01:36:45.473Z,15.00
2023-04-06T01:39:12.263Z,13.38
2023-04-06T01:41:39.080Z,14.15
2023-04-06T01:44:06.640Z,13.82
2023-04-06T01:46:33.582Z,13.68
2023-04-06T01:49:00.576Z,13.52
2023-04-06T01:51:27.761Z,13.52
2023-04-06T01:53:54.565Z,14.15
2023-04-06T01:56:22.165Z,14.00
2023-04-06T01:58:49.028Z,13.55
2023-04-06T02:01:15.972Z,14.38
2023-04-06T02:03:42.859Z,13.77
2023-04-06T02:06:09.852Z,13.05
2023-04-06T02:08:38.235Z,13.95
2023-04-06T02:11:05.082Z,13.98
2023-04-06T02:13:32.189Z,12.82
2023-04-06T02:15:59.198Z,13.43
2023-04-06T02:18:26.279Z,12.50
2023-04-06T02:20:53.127Z,13.60
2023-04-06T02:23:20.003Z,12.68
2023-04-06T02:25:47.106Z,13.55
2023-04-06T02:28:14.080Z,13.90
2023-04-06T02:30:40.990Z,13.27
2023-04-06T02:33:07.900Z,12.65
2023-04-06T02:35:34.768Z,13.13
2023-04-06T02:38:01.671Z,12.18
2023-04-06T02:40:28.535Z,14.07
2023-04-06T02:42:55.398Z,13.07
2023-04-06T02:45:22.380Z,13.00
2023-04-06T02:47:49.359Z,12.73
2023-04-06T02:50:16.591Z,13.43
2023-04-06T02:52:47.740Z,12.13
2023-04-06T02:55:14.747Z,13.90
2023-04-06T02:57:41.719Z,13.77
2023-04-06T03:00:09.245Z,13.25
2023-04-06T03:02:36.331Z,13.65
2023-04-06T03:05:04.461Z,12.43
2023-04-06T03:07:31.427Z,12.10
2023-04-06T03:09:58.400Z,13.10
2023-04-06T03:12:25.473Z,12.38
2023-04-06T03:14:52.561Z,12.65
2023-04-06T03:17:19.629Z,12.75
2023-04-06T03:19:46.494Z,12.30
2023-04-06T03:22:13.300Z,13.25
2023-04-06T03:24:40.135Z,13.98
2023-04-06T03:27:07.376Z,13.93
2023-04-06T03:29:34.396Z,13.05
2023-04-06T03:32:01.366Z,12.80
2023-04-06T03:34:28.403Z,13.55
2023-04-06T03:37:08.882Z,13.15
2023-04-06T03:39:37.405Z,12.77
2023-04-06T03:42:04.595Z,12.98
2023-04-06T03:44:31.444Z,13.25
2023-04-06T03:46:58.321Z,13.65
2023-04-06T03:49:25.263Z,12.45
2023-04-06T03:51:52.117Z,13.25
2023-04-06T03:54:18.964Z,12.93
2023-04-06T03:56:45.955Z,13.23
2023-04-06T03:59:12.849Z,12.70
2023-04-06T04:01:40.488Z,13.40
2023-04-06T04:04:07.446Z,12.85
2023-04-06T04:06:34.289Z,13.15
2023-04-06T04:09:01.156Z,13.57
2023-04-06T04:11:28.048Z,14.13
2023-04-06T04:13:54.847Z,13.68
2023-04-06T04:16:21.763Z,14.40
2023-04-06T04:18:49.726Z,14.38
2023-04-06T04:21:16.688Z,13.18
2023-04-06T04:23:43.581Z,12.40
2023-04-06T04:26:10.436Z,13.57
2023-04-06T04:28:37.293Z,13.48
2023-04-06T04:31:04.206Z,12.68
2023-04-06T04:33:32.680Z,12.98
2023-04-06T04:36:01.337Z,13.90
2023-04-06T04:38:28.317Z,12.65
2023-04-06T04:40:55.207Z,12.77
2023-04-06T04:43:22.020Z,14.02
2023-04-06T04:45:48.907Z,15.25
2023-04-06T04:48:15.890Z,14.30
2023-04-06T04:50:42.759Z,13.75
2023-04-06T04:53:09.652Z,14.43
2023-04-06T04:55:36.524Z,14.73
2023-04-06T04:58:03.654Z,13.88
2023-04-06T05:00:33.030Z,14.63
2023-04-06T05:02:59.998Z,13.55
2023-04-06T05:05:26.872Z,12.95
2023-04-06T05:07:53.619Z,14.75
2023-04-06T05:10:20.526Z,14.38
2023-04-06T05:12:47.346Z,14.10
2023-04-06T05:15:14.370Z,14.32
2023-04-06T05:17:41.475Z,13.88
2023-04-06T05:20:08.876Z,14.85
2023-04-06T05:22:36.127Z,14.15
2023-04-06T05:25:03.770Z,15.75
2023-04-06T05:27:30.682Z,24.60
2023-04-06T05:29:57.985Z,37.65
2023-04-06T05:32:25.911Z,48.63
2023-04-06T05:34:52.825Z,54.22
2023-04-06T05:37:19.693Z,29.98
2023-04-06T05:39:46.817Z,29.25
2023-04-06T05:42:13.668Z,35.10
2023-04-06T05:44:40.460Z,30.10
2023-04-06T05:47:07.273Z,24.35
2023-04-06T05:49:34.257Z,20.92
2023-04-06T05:52:01.164Z,19.25
2023-04-06T05:54:30.786Z,21.15
2023-04-06T05:56:57.630Z,18.33
2023-04-06T05:59:24.987Z,16.55
2023-04-06T06:01:51.970Z,19.38
2023-04-06T06:04:18.838Z,18.10
2023-04-06T06:06:45.807Z,18.65
2023-04-06T06:09:12.596Z,16.52
2023-04-06T06:11:39.743Z,16.08
2023-04-06T06:14:06.655Z,14.90
2023-04-06T06:16:34.037Z,15.73
2023-04-06T06:19:00.957Z,17.25
2023-04-06T06:21:27.812Z,20.92
2023-04-06T06:23:55.643Z,23.90
2023-04-06T06:26:22.888Z,18.02
2023-04-06T06:28:49.795Z,15.23
2023-04-06T06:31:17.391Z,14.60
2023-04-06T06:33:44.275Z,17.60
2023-04-06T06:36:11.344Z,39.80
2023-04-06T06:38:39.236Z,29.33
2023-04-06T06:41:06.126Z,29.42
2023-04-06T06:43:33.014Z,21.45
2023-04-06T06:45:59.961Z,22.23
2023-04-06T06:48:26.862Z,18.40
2023-04-06T06:50:53.775Z,17.50
2023-04-06T06:53:21.365Z,15.95
2023-04-06T06:55:49.965Z,16.92
2023-04-06T06:58:19.168Z,17.52
2023-04-06T07:00:46.068Z,14.75
2023-04-06T07:03:13.325Z,15.82
2023-04-06T07:05:41.602Z,15.40
2023-04-06T07:08:08.454Z,16.20
2023-04-06T07:10:36.236Z,15.35
2023-04-06T07:13:03.248Z,15.45
2023-04-06T07:15:31.188Z,15.50
2023-04-06T07:17:58.228Z,16.33
2023-04-06T07:20:25.135Z,16.00
2023-04-06T07:22:52.085Z,16.85
2023-04-06T07:25:24.295Z,15.73
2023-04-06T07:27:52.511Z,14.80
2023-04-06T07:30:19.832Z,16.17
2023-04-06T07:32:47.028Z,15.45
2023-04-06T07:48:14.117Z,16.48
2023-04-06T07:50:41.341Z,12.35
2023-04-06T07:53:09.255Z,11.70
2023-04-06T07:55:36.147Z,11.55
2023-04-06T07:58:02.995Z,10.18
2023-04-06T08:00:31.011Z,9.77
2023-04-06T08:02:57.889Z,10.88
2023-04-06T08:05:24.787Z,8.70
2023-04-06T08:07:51.592Z,8.90
2023-04-06T08:10:18.388Z,9.48
2023-04-06T08:12:45.470Z,8.65
2023-04-06T08:15:12.362Z,9.15
2023-04-06T08:17:39.448Z,8.63
2023-04-06T08:20:06.804Z,5.55
2023-04-06T08:22:33.630Z,6.32
2023-04-06T08:25:00.438Z,6.35
2023-04-06T08:27:27.353Z,5.18
2023-04-06T08:29:54.154Z,3.95
2023-04-06T08:32:21.197Z,3.05
2023-04-06T08:34:48.535Z,3.42
2023-04-06T08:37:15.352Z,3.80
2023-04-06T08:39:42.193Z,4.88
2023-04-06T08:42:22.897Z,4.53
2023-04-06T08:44:52.309Z,4.13
2023-04-06T08:47:21.691Z,4.80
2023-04-06T08:49:52.261Z,4.75
2023-04-06T08:52:20.117Z,4.78
2023-04-06T08:54:47.335Z,4.50
2023-04-06T08:57:14.359Z,4.68
2023-04-06T08:59:41.722Z,4.88
2023-04-06T09:02:18.320Z,4.47
2023-04-06T09:04:47.770Z,4.57
2023-04-06T09:07:16.502Z,4.90
2023-04-06T09:09:48.806Z,4.05
2023-04-06T09:12:29.326Z,4.90
2023-04-06T09:14:57.693Z,3.83
2023-04-06T09:17:28.711Z,3.65
2023-04-06T09:19:56.133Z,4.22
2023-04-06T09:22:23.064Z,3.95
2023-04-06T09:24:52.435Z,3.80
2023-04-06T09:27:21.258Z,4.38
2023-04-06T09:29:48.150Z,4.50
2023-04-06T09:32:17.989Z,4.63
2023-04-06T09:34:50.966Z,4.60
2023-04-06T09:37:20.597Z,4.75
2023-04-06T09:39:47.981Z,4.57
2023-04-06T09:42:27.596Z,4.78
2023-04-06T09:44:54.482Z,3.70
2023-04-06T09:47:25.291Z,4.00
2023-04-06T09:49:59.268Z,4.10
2023-04-06T09:55:03.294Z,4.13
2023-04-06T09:57:47.099Z,4.95
2023-04-06T10:00:20.245Z,5.22
2023-04-06T10:02:47.786Z,4.40
2023-04-06T10:05:26.112Z,4.95
2023-04-06T10:08:00.455Z,5.30
2023-04-06T10:10:29.618Z,4.50
2023-04-06T10:12:57.333Z,5.88
2023-04-06T10:15:25.370Z,4.85
2023-04-06T10:17:52.884Z,4.35
2023-04-06T10:20:28.219Z,4.50
2023-04-06T10:23:26.721Z,3.75
2023-04-06T10:25:59.032Z,5.00
2023-04-06T10:28:26.824Z,3.92
2023-04-06T10:31:01.294Z,4.00
2023-04-06T10:33:28.597Z,3.75
2023-04-06T10:35:56.885Z,4.45
2023-04-06T10:38:41.400Z,4.30
2023-04-06T10:41:10.702Z,3.92
2023-04-06T10:43:39.226Z,4.18
2023-04-06T10:46:16.910Z,4.35
2023-04-06T10:48:46.561Z,3.42
2023-04-06T10:51:15.261Z,5.20
2023-04-06T10:53:47.799Z,6.00
2023-04-06T10:56:17.414Z,4.70
2023-04-06T10:58:53.390Z,4.90
2023-04-06T11:01:22.324Z,3.58
2023-04-06T11:03:54.461Z,3.65
2023-04-06T11:08:52.779Z,4.30
2023-04-06T11:11:21.772Z,3.50
2023-04-06T11:13:52.786Z,3.40
2023-04-06T11:16:33.202Z,3.75
2023-04-06T11:19:04.985Z,3.55
2023-04-06T11:21:36.730Z,3.50
2023-04-06T11:24:04.895Z,3.45
2023-04-06T11:26:31.701Z,3.67
2023-04-06T11:28:58.507Z,3.55
2023-04-06T11:31:28.582Z,3.40
2023-04-06T11:33:58.677Z,3.60
2023-04-06T11:36:28.879Z,3.45
2023-04-06T11:38:57.547Z,3.97
2023-04-06T11:41:27.128Z,3.80
2023-04-06T11:43:57.214Z,5.00
2023-04-06T11:46:24.143Z,4.57
2023-04-06T11:48:51.450Z,3.80
2023-04-06T11:51:30.700Z,3.75
2023-04-06T11:53:57.593Z,3.58
2023-04-06T11:56:31.408Z,4.45
2023-04-06T11:58:59.787Z,4.00
2023-04-06T12:01:27.238Z,3.90
2023-04-06T12:03:54.608Z,4.10
2023-04-06T12:06:21.596Z,3.78
2023-04-06T12:08:48.484Z,3.40
2023-04-06T12:11:15.373Z,3.80
2023-04-06T12:13:42.184Z,4.40
2023-04-06T12:16:09.093Z,3.90
2023-04-06T12:18:36.060Z,4.03
2023-04-06T12:21:03.036Z,3.53
2023-04-06T12:23:29.910Z,4.20
2023-04-06T12:25:56.876Z,4.47
2023-04-06T12:28:28.017Z,3.88
2023-04-06T12:30:55.898Z,3.47
2023-04-06T12:33:22.918Z,3.55
2023-04-06T12:35:49.891Z,3.40
2023-04-06T12:38:17.142Z,3.78
2023-04-06T12:40:44.285Z,3.40
2023-04-06T12:43:11.799Z,3.70
2023-04-06T12:45:38.758Z,3.22
2023-04-06T12:48:05.774Z,3.88
2023-04-06T12:50:32.617Z,3.55
2023-04-06T12:52:59.471Z,3.90
2023-04-06T12:55:26.390Z,3.47
2023-04-06T12:57:53.247Z,3.42
2023-04-06T13:00:20.868Z,3.80
2023-04-06T13:02:48.343Z,4.03
2023-04-06T13:05:20.128Z,4.43
2023-04-06T13:07:47.994Z,3.85
2023-04-06T13:10:14.996Z,3.55
2023-04-06T13:12:41.968Z,3.35
2023-04-06T13:15:09.306Z,3.40
2023-04-06T13:17:36.281Z,4.38
2023-04-06T13:20:04.597Z,3.50
2023-04-06T13:22:31.496Z,3.25
2023-04-06T13:24:58.379Z,3.53
2023-04-06T13:27:25.417Z,3.88
2023-04-06T13:29:52.352Z,3.88
2023-04-06T13:32:19.318Z,4.28
2023-04-06T13:34:46.272Z,4.95
2023-04-06T13:37:14.392Z,5.63
2023-04-06T13:39:41.505Z,4.55
2023-04-06T13:42:08.369Z,4.72
2023-04-06T13:44:37.693Z,4.18
2023-04-06T13:47:04.569Z,4.45
2023-04-06T13:49:31.426Z,5.45
2023-04-06T13:51:58.258Z,5.85
2023-04-06T13:54:25.418Z,4.60
2023-04-06T13:56:53.095Z,5.35
2023-04-06T13:59:19.986Z,4.80
2023-04-06T14:01:46.927Z,4.28
2023-04-06T14:04:13.935Z,4.65
2023-04-06T14:06:40.867Z,4.82
2023-04-06T14:09:07.706Z,6.05
2023-04-06T14:11:34.619Z,5.90
2023-04-06T14:14:02.029Z,6.38
2023-04-06T14:16:28.875Z,6.00
2023-04-06T14:18:56.191Z,6.80
2023-04-06T14:21:23.400Z,10.00
2023-04-06T14:23:50.560Z,6.20
2023-04-06T14:26:17.738Z,7.35
2023-04-06T14:28:47.474Z,8.70
2023-04-06T14:31:17.110Z,12.75
2023-04-06T14:33:44.480Z,6.82
2023-04-06T14:36:12.452Z,8.52
2023-04-06T14:38:40.501Z,7.35
2023-04-06T14:41:08.310Z,8.43
2023-04-06T14:43:35.267Z,6.20
2023-04-06T14:46:02.645Z,6.10
2023-04-06T14:48:29.718Z,7.07
2023-04-06T14:50:57.578Z,5.88
2023-04-06T14:58:40.734Z,6.18
2023-04-06T15:01:07.743Z,6.88
2023-04-06T15:03:34.953Z,6.53
2023-04-06T15:06:01.823Z,5.47
2023-04-06T15:08:28.710Z,7.05
2023-04-06T15:11:05.700Z,6.72
2023-04-06T15:13:34.784Z,6.15
2023-04-06T15:16:02.128Z,5.60
2023-04-06T15:18:29.652Z,7.18
2023-04-06T15:20:56.564Z,6.43
2023-04-06T15:23:26.211Z,6.30
2023-04-06T15:25:53.172Z,5.82
2023-04-06T15:28:20.051Z,7.30
2023-04-06T15:30:46.950Z,6.13
2023-04-06T15:33:13.849Z,7.00
2023-04-06T15:35:43.032Z,7.97
2023-04-06T15:38:13.139Z,10.40
2023-04-06T15:40:47.614Z,5.32
2023-04-06T15:43:14.974Z,6.88
2023-04-06T15:45:42.440Z,8.40
2023-04-06T15:48:09.628Z,9.40
2023-04-06T15:50:36.737Z,7.10
2023-04-06T15:53:06.238Z,7.28
2023-04-06T15:55:33.042Z,6.80
2023-04-06T15:57:59.883Z,8.98
2023-04-06T16:00:28.665Z,8.88
2023-04-06T16:02:57.212Z,7.57
2023-04-06T16:05:24.228Z,6.35
2023-04-06T16:07:51.252Z,6.25
2023-04-06T16:10:18.194Z,6.45
2023-04-06T16:12:45.171Z,8.02
2023-04-06T16:15:12.369Z,8.43
2023-04-06T16:17:39.185Z,7.13
2023-04-06T16:20:06.766Z,7.30
2023-04-06T16:22:33.679Z,5.63
2023-04-06T16:25:00.502Z,8.93
2023-04-06T16:27:27.924Z,8.18
2023-04-06T16:29:54.815Z,7.65
2023-04-06T16:32:21.705Z,7.57
2023-04-06T16:34:48.667Z,6.72
2023-04-06T16:37:16.367Z,4.72
2023-04-06T16:39:43.337Z,5.13
2023-04-06T16:42:10.370Z,5.03
2023-04-06T16:44:37.256Z,5.80
2023-04-06T16:47:04.688Z,5.75
2023-04-06T16:49:31.561Z,6.70
2023-04-06T16:52:02.041Z,6.95
2023-04-06T16:54:28.992Z,7.80
2023-04-06T16:56:56.669Z,7.70
2023-04-06T16:59:23.479Z,6.80
2023-04-06T17:01:50.600Z,6.63
2023-04-06T17:04:17.717Z,5.68
2023-04-06T17:06:45.097Z,4.88
2023-04-06T17:09:12.376Z,6.93
2023-04-06T17:11:46.644Z,4.60
2023-04-06T17:14:16.765Z,4.57
2023-04-06T17:16:43.579Z,4.88
2023-04-06T17:19:10.560Z,6.32
2023-04-06T17:21:38.821Z,6.75
2023-04-06T17:24:06.249Z,9.05
2023-04-06T17:26:33.091Z,9.07
2023-04-06T17:29:00.188Z,8.32
2023-04-06T17:31:27.276Z,6.53
2023-04-06T17:33:56.613Z,6.30
2023-04-06T17:36:24.379Z,5.65
2023-04-06T17:38:51.371Z,6.47
2023-04-06T17:41:18.293Z,6.25
2023-04-06T17:43:45.549Z,5.47
2023-04-06T17:46:12.868Z,7.55
2023-04-06T17:48:39.684Z,6.07
2023-04-06T17:51:06.900Z,5.57
2023-04-06T17:53:34.639Z,5.10
2023-04-06T17:56:05.204Z,4.22
2023-04-06T17:58:32.669Z,4.45
2023-04-06T18:01:00.709Z,4.85
2023-04-06T18:03:27.576Z,4.95
2023-04-06T18:05:54.963Z,4.78
2023-04-06T18:08:22.534Z,5.20
2023-04-06T18:10:49.542Z,4.90
2023-04-06T18:13:16.389Z,5.88
2023-04-06T18:15:43.256Z,5.38
2023-04-06T18:18:10.040Z,4.10
2023-04-06T18:20:41.256Z,4.25
2023-04-06T18:23:08.143Z,4.25
2023-04-06T18:25:41.476Z,4.40
2023-04-06T18:28:09.829Z,5.32
2023-04-06T18:30:36.858Z,4.70
2023-04-06T18:33:04.373Z,5.82
2023-04-06T18:35:31.241Z,4.18
2023-04-06T18:37:58.138Z,3.90
2023-04-06T18:40:34.592Z,4.25
2023-04-06T18:43:02.856Z,4.32
2023-04-06T18:45:31.672Z,4.15
2023-04-06T18:47:58.599Z,5.85
2023-04-06T18:50:27.784Z,5.80
2023-04-06T18:52:54.824Z,4.63
2023-04-06T18:55:21.755Z,3.97
2023-04-06T18:57:48.599Z,2.97
2023-04-06T19:00:19.036Z,2.90
2023-04-06T19:02:46.329Z,3.78
2023-04-06T19:05:14.004Z,3.85
2023-04-06T19:07:42.427Z,3.38
2023-04-06T19:10:10.465Z,4.15
2023-04-06T19:12:38.954Z,4.38
2023-04-06T19:15:08.175Z,4.43
2023-04-06T19:17:35.444Z,4.38
2023-04-06T19:20:02.768Z,4.20
2023-04-06T19:22:34.103Z,4.28
2023-04-06T19:25:00.961Z,3.60
2023-04-06T19:27:27.807Z,3.67
2023-04-06T19:29:54.921Z,4.00
2023-04-06T19:32:21.842Z,3.67
2023-04-06T19:34:49.576Z,4.20
2023-04-06T19:37:16.394Z,2.78
2023-04-06T19:39:45.906Z,3.28
2023-04-06T19:42:14.281Z,3.67
2023-04-06T19:44:41.658Z,3.55
2023-04-06T19:47:08.512Z,3.28
2023-04-06T19:49:35.374Z,3.20
2023-04-06T19:52:02.279Z,3.40
2023-04-06T19:54:29.135Z,3.17
2023-04-06T19:56:56.043Z,3.17
2023-04-06T19:59:23.003Z,3.55
2023-04-06T20:01:49.952Z,4.40
2023-04-06T20:04:17.033Z,2.95
2023-04-06T20:06:43.999Z,3.92
2023-04-06T20:09:12.120Z,4.53
2023-04-06T20:11:39.143Z,4.38
2023-04-06T20:14:06.067Z,4.93
2023-04-06T20:16:33.007Z,4.10
2023-04-06T20:18:59.927Z,3.67
2023-04-06T20:21:27.392Z,3.45
2023-04-06T20:23:54.299Z,3.53
2023-04-06T20:26:21.582Z,3.90
2023-04-06T20:28:48.774Z,4.68
2023-04-06T20:31:15.754Z,4.57
2023-04-06T20:33:42.589Z,4.70
2023-04-06T20:36:09.671Z,5.40
2023-04-06T20:38:36.605Z,5.15
2023-04-06T20:41:03.469Z,4.82
2023-04-06T20:43:31.828Z,4.40
2023-04-06T20:45:59.494Z,5.50
2023-04-06T20:48:26.760Z,5.20
2023-04-06T20:50:53.701Z,4.38
2023-04-06T20:53:20.995Z,4.90
2023-04-06T20:55:47.974Z,5.28
2023-04-06T20:58:21.041Z,4.93
2023-04-06T21:00:49.778Z,5.32
2023-04-06T21:03:17.617Z,4.70
2023-04-06T21:05:57.550Z,5.18
2023-04-06T21:08:24.458Z,4.90
2023-04-06T21:10:51.316Z,5.95
2023-04-06T21:13:18.854Z,5.75
2023-04-06T21:15:45.725Z,6.05
2023-04-06T21:18:14.893Z,5.45
2023-04-06T21:20:41.830Z,4.97
2023-04-06T21:23:08.667Z,5.03
2023-04-06T21:25:38.746Z,4.97
2023-04-06T21:28:05.772Z,5.35
2023-04-06T21:30:37.249Z,5.45
2023-04-06T21:33:07.611Z,5.85
2023-04-06T21:35:38.978Z,5.60
2023-04-06T21:38:06.082Z,5.53
2023-04-06T21:40:33.427Z,5.95
2023-04-06T21:43:00.310Z,5.90
2023-04-06T21:45:27.176Z,6.53
2023-04-06T21:47:54.197Z,6.05
2023-04-06T21:50:21.243Z,5.40
2023-04-06T21:52:48.131Z,5.40
2023-04-06T21:55:15.240Z,5.40
2023-04-06T21:57:42.885Z,5.78
2023-04-06T22:00:12.645Z,5.80
2023-04-06T22:02:41.174Z,5.63
2023-04-06T22:05:08.758Z,5.97
2023-04-06T22:07:36.114Z,6.20
2023-04-06T22:10:03.193Z,7.05
2023-04-06T22:12:30.273Z,5.38
2023-04-06T22:14:57.680Z,5.28
2023-04-06T22:17:24.667Z,4.70
2023-04-06T22:19:52.718Z,5.32
2023-04-06T22:22:19.687Z,5.22
2023-04-06T22:24:46.777Z,5.65
2023-04-06T22:27:13.714Z,5.25
2023-04-06T22:29:40.531Z,6.05
2023-04-06T22:32:07.426Z,5.78
2023-04-06T22:34:34.282Z,4.97
2023-04-06T22:37:01.389Z,5.18
2023-04-06T22:39:28.201Z,5.20
2023-04-06T22:41:55.034Z,5.05
2023-04-06T22:44:21.982Z,5.50
2023-04-06T22:46:48.997Z,4.95
2023-04-06T22:49:15.935Z,5.45
2023-04-06T22:51:42.839Z,5.88
2023-04-06T22:54:10.645Z,5.82
2023-04-06T22:56:37.715Z,5.85
2023-04-06T22:59:04.716Z,4.68
2023-04-06T23:01:31.778Z,5.72
2023-04-06T23:03:58.877Z,5.70
2023-04-06T23:06:27.420Z,5.18
2023-04-06T23:08:54.359Z,5.97
2023-04-06T23:11:22.318Z,6.43
2023-04-06T23:13:49.210Z,6.45
2023-04-06T23:16:16.202Z,6.95
2023-04-06T23:18:43.398Z,5.88
2023-04-06T23:21:10.458Z,5.22
2023-04-06T23:23:37.280Z,4.90
2023-04-06T23:26:04.346Z,5.82
2023-04-06T23:28:31.177Z,5.40
2023-04-06T23:30:58.030Z,5.18
2023-04-06T23:33:24.852Z,5.18
2023-04-06T23:35:52.210Z,5.00
2023-04-06T23:38:19.171Z,5.50
2023-04-06T23:40:46.353Z,5.10
2023-04-06T23:43:13.207Z,5.55
2023-04-06T23:45:41.998Z,4.95
2023-04-06T23:48:09.639Z,5.28
2023-04-06T23:50:36.891Z,5.63
2023-04-06T23:53:04.657Z,5.60
2023-04-06T23:55:31.743Z,5.85
2023-04-06T23:57:58.887Z,5.40
